Time;durP1;ratioP1;P1;durP2;ratioP2;P2;SDS_P1;SDS_P2;PMS_P1;PMS_P2;Temp;Humidity;BMP_temperature;BMP_pressure;BME280_temperature;BME280_humidity;BME280_pressure;Samples;Min_cycle;Max_cycle;Signal;HPM_P1;HPM_P2
2023/11/28 00:00:35;;;;;;;3.28;3.08;;;0.90;99.90;;;;;;5039544;28;20672;-78
2023/11/28 00:03:03;;;;;;;3.85;3.55;;;0.90;99.90;;;;;;5041827;28;20207;-78
2023/11/28 00:05:30;;;;;;;3.85;3.53;;;0.90;99.90;;;;;;5041857;28;20032;-78
2023/11/28 00:07:57;;;;;;;3.35;3.15;;;0.80;99.90;;;;;;5021308;28;20041;-79
2023/11/28 00:10:24;;;;;;;3.80;3.50;;;0.80;99.90;;;;;;5030632;28;20047;-78
2023/11/28 00:12:50;;;;;;;3.70;3.42;;;0.80;99.90;;;;;;5020529;28;20532;-78
2023/11/28 00:15:17;;;;;;;4.25;3.95;;;0.80;99.90;;;;;;5030237;28;20131;-78
2023/11/28 00:17:44;;;;;;;3.60;3.33;;;0.80;99.90;;;;;;5017375;28;20499;-79
2023/11/28 00:20:11;;;;;;;4.13;3.80;;;0.80;99.90;;;;;;5048205;28;20045;-79
2023/11/28 00:22:38;;;;;;;4.10;3.75;;;0.70;99.90;;;;;;5035802;28;20052;-79
2023/11/28 00:25:06;;;;;;;4.18;3.88;;;0.80;99.90;;;;;;5017813;28;20449;-78
2023/11/28 00:27:33;;;;;;;4.82;4.32;;;0.80;99.90;;;;;;5032918;28;20145;-79
2023/11/28 00:29:59;;;;;;;4.20;3.90;;;0.80;99.90;;;;;;5035695;28;20102;-79
2023/11/28 00:32:26;;;;;;;5.22;4.50;;;0.80;99.90;;;;;;5031559;28;20066;-79
2023/11/28 00:34:53;;;;;;;4.60;4.20;;;0.80;99.90;;;;;;5028650;28;20065;-78
2023/11/28 00:37:21;;;;;;;3.67;3.40;;;0.80;99.90;;;;;;5039812;28;20051;-79
2023/11/28 00:39:48;;;;;;;4.15;3.75;;;0.70;99.90;;;;;;5018766;28;20056;-79
2023/11/28 00:42:16;;;;;;;3.58;3.28;;;0.70;99.90;;;;;;5016290;28;20064;-78
2023/11/28 00:44:47;;;;;;;4.07;3.78;;;0.70;99.90;;;;;;5034331;28;20124;-77
2023/11/28 01:22:06;;;;;;;;;;;;;;;;;;;;;
2023/11/28 01:35:26;;;;;;;8.18;6.40;;;0.40;99.90;;;;;;4944175;28;20046;-79
2023/11/28 01:51:32;;;;;;;;;;;;;;;;;;;;;
2023/11/28 01:58:01;;;;;;;5.80;4.88;;;0.20;99.90;;;;;;4953500;28;20054;-79
2023/11/28 02:00:28;;;;;;;10.80;8.73;;;0.20;99.90;;;;;;4969124;28;20417;-80
2023/11/28 02:03:00;;;;;;;7.70;5.75;;;0.20;99.90;;;;;;4959974;28;20051;-79
2023/11/28 02:05:28;;;;;;;7.45;5.53;;;0.20;99.90;;;;;;4953228;28;20058;-79
2023/11/28 02:07:55;;;;;;;10.77;7.70;;;0.10;99.90;;;;;;4943791;28;20420;-79
2023/11/28 02:10:25;;;;;;;11.30;8.45;;;0.20;99.90;;;;;;4950933;28;20400;-79
2023/11/28 02:12:52;;;;;;;12.25;9.32;;;0.20;99.90;;;;;;4926740;28;20042;-79
2023/11/28 02:15:38;;;;;;;10.80;7.88;;;0.20;99.90;;;;;;4922498;28;20054;-80
2023/11/28 02:18:05;;;;;;;11.15;7.78;;;0.20;99.90;;;;;;4937067;28;20055;-79
2023/11/28 02:20:31;;;;;;;10.25;7.22;;;0.20;99.90;;;;;;4956135;28;20059;-79
2023/11/28 02:22:58;;;;;;;10.93;8.80;;;0.10;99.90;;;;;;4942793;28;20391;-79
2023/11/28 02:25:27;;;;;;;10.95;8.70;;;0.20;99.90;;;;;;4937636;28;20039;-79
2023/11/28 02:27:54;;;;;;;8.57;6.03;;;0.20;99.90;;;;;;4938842;28;20058;-79
2023/11/28 02:30:21;;;;;;;10.55;8.57;;;0.20;99.90;;;;;;4939526;28;20050;-79
2023/11/28 02:32:47;;;;;;;12.25;9.20;;;0.20;99.90;;;;;;4923625;28;20131;-80
2023/11/28 02:35:14;;;;;;;10.10;7.70;;;0.20;99.90;;;;;;4954107;28;20047;-78
2023/11/28 02:37:49;;;;;;;12.52;9.73;;;0.20;99.90;;;;;;4919861;28;20532;-79
2023/11/28 02:40:17;;;;;;;12.60;9.38;;;0.20;99.90;;;;;;4954615;23;20052;-77
2023/11/28 02:42:43;;;;;;;10.25;7.47;;;0.20;99.90;;;;;;4941886;28;20066;-77
2023/11/28 02:45:10;;;;;;;10.48;8.10;;;0.20;99.90;;;;;;4920904;28;20137;-77
2023/11/28 02:47:37;;;;;;;11.13;8.40;;;0.20;99.90;;;;;;4919176;28;20074;-78
2023/11/28 02:50:05;;;;;;;10.70;7.95;;;0.00;99.90;;;;;;4924842;28;20054;-79
2023/11/28 02:52:32;;;;;;;11.50;8.18;;;0.00;99.90;;;;;;4931044;28;20051;-78
2023/11/28 02:54:58;;;;;;;9.80;7.80;;;0.00;99.90;;;;;;4934301;28;20521;-78
2023/11/28 02:57:25;;;;;;;8.95;6.63;;;0.00;99.90;;;;;;4932452;28;20062;-79
2023/11/28 02:59:52;;;;;;;11.50;8.73;;;0.00;99.90;;;;;;4918930;28;20127;-77
2023/11/28 03:02:19;;;;;;;10.63;7.80;;;0.00;99.90;;;;;;4946255;28;20755;-77
2023/11/28 03:04:45;;;;;;;8.88;6.10;;;0.00;99.90;;;;;;4930401;28;20050;-77
2023/11/28 03:07:12;;;;;;;8.95;7.68;;;-0.10;99.90;;;;;;4918623;28;20035;-75
2023/11/28 03:09:41;;;;;;;10.95;9.35;;;-0.10;99.90;;;;;;4931865;28;20046;-76
2023/11/28 03:12:10;;;;;;;13.65;10.75;;;0.00;99.90;;;;;;4931395;28;20094;-76
2023/11/28 03:14:37;;;;;;;13.02;10.18;;;0.00;99.90;;;;;;4930006;28;20100;-76
2023/11/28 03:17:04;;;;;;;10.98;8.32;;;0.00;99.90;;;;;;4937577;28;20057;-76
2023/11/28 03:19:31;;;;;;;8.75;7.43;;;0.00;99.90;;;;;;4941723;28;20062;-78
2023/11/28 03:21:57;;;;;;;13.85;10.82;;;-0.10;99.90;;;;;;4949510;28;20103;-78
2023/11/28 03:24:24;;;;;;;12.25;10.25;;;-0.10;99.90;;;;;;4933898;28;22232;-79
2023/11/28 03:26:51;;;;;;;12.15;8.93;;;0.00;99.90;;;;;;4940387;28;20716;-78
2023/11/28 03:29:18;;;;;;;11.23;8.57;;;-0.10;99.90;;;;;;4950347;28;20109;-77
2023/11/28 03:31:45;;;;;;;10.50;7.90;;;-0.10;99.90;;;;;;4949244;28;20125;-78
2023/11/28 03:34:12;;;;;;;11.52;9.02;;;-0.10;99.90;;;;;;4916722;28;20094;-79
2023/11/28 03:36:40;;;;;;;10.90;9.00;;;-0.10;99.90;;;;;;4938615;28;20057;-76
2023/11/28 03:39:06;;;;;;;11.20;8.70;;;-0.10;99.90;;;;;;4937440;28;20058;-76
2023/11/28 03:41:34;;;;;;;8.93;7.45;;;-0.10;99.90;;;;;;4937403;28;20137;-76
2023/11/28 03:44:01;;;;;;;11.90;9.45;;;-0.10;99.90;;;;;;4929413;28;20079;-77
2023/11/28 03:46:28;;;;;;;12.60;10.18;;;-0.10;99.90;;;;;;4928649;28;20054;-77
2023/11/28 03:48:55;;;;;;;14.15;10.43;;;0.00;99.90;;;;;;4937569;28;20126;-75
2023/11/28 03:51:22;;;;;;;10.40;7.32;;;0.00;99.90;;;;;;4921445;28;20034;-76
2023/11/28 03:53:49;;;;;;;12.15;8.70;;;-0.10;99.90;;;;;;4936349;28;20105;-77
2023/11/28 03:56:15;;;;;;;8.20;6.45;;;-0.10;99.90;;;;;;4936899;28;20047;-76
2023/11/28 03:58:43;;;;;;;8.38;6.55;;;-0.10;99.90;;;;;;4935032;28;20047;-75
2023/11/28 04:01:10;;;;;;;9.88;8.13;;;-0.20;99.90;;;;;;4923395;28;20607;-76
2023/11/28 04:03:37;;;;;;;11.10;8.18;;;-0.20;99.90;;;;;;4937161;28;20309;-77
2023/11/28 04:06:04;;;;;;;10.52;8.70;;;-0.20;99.90;;;;;;4937789;28;20042;-76
2023/11/28 04:08:31;;;;;;;10.60;8.32;;;-0.20;99.90;;;;;;4933474;28;22587;-77
2023/11/28 04:10:58;;;;;;;10.70;8.23;;;-0.10;99.90;;;;;;4924852;28;20117;-77
2023/11/28 04:13:25;;;;;;;11.13;8.68;;;-0.10;99.90;;;;;;4935997;28;20075;-77
2023/11/28 04:15:53;;;;;;;10.70;7.35;;;-0.10;99.90;;;;;;4929920;28;20039;-78
2023/11/28 04:18:19;;;;;;;6.32;5.43;;;-0.20;99.90;;;;;;4947973;28;20518;-78
2023/11/28 04:20:46;;;;;;;10.82;8.45;;;-0.20;99.90;;;;;;4931327;28;20043;-76
2023/11/28 04:23:13;;;;;;;4.40;3.97;;;-0.20;99.90;;;;;;4913954;28;20103;-76
2023/11/28 04:25:40;;;;;;;8.73;6.63;;;-0.20;99.90;;;;;;4931098;28;20090;-78
2023/11/28 04:28:07;;;;;;;11.40;8.57;;;-0.20;99.90;;;;;;4933244;28;20046;-78
2023/11/28 04:30:34;;;;;;;11.93;8.77;;;-0.20;99.90;;;;;;4932768;28;20051;-78
2023/11/28 04:33:01;;;;;;;12.02;6.43;;;-0.20;99.90;;;;;;4936319;28;20407;-78
2023/11/28 04:35:28;;;;;;;11.85;8.07;;;-0.20;99.90;;;;;;4928365;28;20059;-78
2023/11/28 04:37:55;;;;;;;9.75;7.40;;;-0.20;99.90;;;;;;4933212;28;20312;-77
2023/11/28 04:40:22;;;;;;;13.13;9.15;;;-0.20;99.90;;;;;;4948323;28;20039;-77
2023/11/28 04:42:50;;;;;;;12.27;8.73;;;-0.30;99.90;;;;;;4933855;28;20073;-78
2023/11/28 04:45:16;;;;;;;10.85;6.55;;;-0.30;99.90;;;;;;4936481;28;20393;-78
2023/11/28 04:47:43;;;;;;;13.80;9.55;;;-0.30;99.90;;;;;;4933453;28;20353;-78
2023/11/28 04:50:10;;;;;;;13.60;9.55;;;-0.30;99.90;;;;;;4925276;28;20354;-77
2023/11/28 04:52:39;;;;;;;14.48;9.98;;;-0.30;99.90;;;;;;4924967;28;20369;-77
2023/11/28 04:55:06;;;;;;;15.20;9.93;;;-0.30;99.90;;;;;;4924379;28;20332;-77
2023/11/28 04:57:33;;;;;;;11.98;8.63;;;-0.30;99.90;;;;;;4914579;28;20043;-75
2023/11/28 05:00:01;;;;;;;11.52;8.30;;;-0.30;99.90;;;;;;4934483;28;20484;-76
2023/11/28 05:02:27;;;;;;;15.07;10.15;;;-0.30;99.90;;;;;;4915204;28;20486;-76
2023/11/28 05:04:54;;;;;;;17.10;12.05;;;-0.30;99.90;;;;;;4936473;28;20517;-76
2023/11/28 05:07:22;;;;;;;17.42;10.65;;;-0.30;99.90;;;;;;4945805;28;20090;-76
2023/11/28 05:09:48;;;;;;;33.42;11.07;;;-0.30;99.90;;;;;;4935456;28;20069;-76
2023/11/28 05:12:15;;;;;;;11.48;9.63;;;-0.30;99.90;;;;;;4934772;28;20044;-77
2023/11/28 05:14:42;;;;;;;9.88;7.75;;;-0.40;99.90;;;;;;4939430;28;20126;-76
2023/11/28 05:17:09;;;;;;;15.25;10.45;;;-0.40;99.90;;;;;;4924788;28;20089;-76
2023/11/28 05:19:36;;;;;;;15.07;11.10;;;-0.40;99.90;;;;;;4929688;28;20438;-76
2023/11/28 05:22:03;;;;;;;10.63;5.40;;;-0.40;99.90;;;;;;4931530;28;20039;-77
2023/11/28 05:24:31;;;;;;;6.95;5.90;;;-0.40;99.90;;;;;;4914605;28;20130;-78
2023/11/28 05:26:57;;;;;;;13.80;10.35;;;-0.40;99.90;;;;;;4946490;28;20149;-77
2023/11/28 05:29:28;;;;;;;14.25;10.70;;;-0.50;99.90;;;;;;4927407;28;20468;-77
2023/11/28 05:31:55;;;;;;;16.40;10.70;;;-0.40;99.90;;;;;;4925952;28;20515;-77
2023/11/28 05:34:22;;;;;;;15.80;10.82;;;-0.40;99.90;;;;;;4933143;28;20053;-78
2023/11/28 05:36:48;;;;;;;14.88;9.52;;;-0.40;99.90;;;;;;4927244;28;20038;-79
2023/11/28 05:39:15;;;;;;;13.35;9.73;;;-0.40;99.90;;;;;;4945042;28;20111;-79
2023/11/28 05:41:43;;;;;;;11.80;8.95;;;-0.40;99.90;;;;;;4925194;28;20114;-79
2023/11/28 05:44:09;;;;;;;12.95;9.75;;;-0.40;99.90;;;;;;4947095;28;20219;-78
2023/11/28 05:46:36;;;;;;;13.85;9.75;;;-0.40;99.90;;;;;;4926779;28;20150;-79
2023/11/28 05:49:06;;;;;;;12.95;9.65;;;-0.50;99.90;;;;;;4930125;28;20126;-78
2023/11/28 05:51:33;;;;;;;16.25;12.13;;;-0.50;99.90;;;;;;4925487;28;20039;-79
2023/11/28 05:53:59;;;;;;;14.30;9.93;;;-0.40;99.90;;;;;;4921919;28;20406;-78
2023/11/28 05:56:29;;;;;;;19.67;11.18;;;-0.40;99.90;;;;;;4926513;28;20522;-78
2023/11/28 05:58:56;;;;;;;15.85;10.60;;;-0.40;99.90;;;;;;4926371;28;20655;-79
2023/11/28 06:01:27;;;;;;;10.75;7.68;;;-0.40;99.90;;;;;;4927159;28;20130;-78
2023/11/28 06:03:54;;;;;;;17.67;10.95;;;-0.40;99.90;;;;;;4929479;28;20046;-77
2023/11/28 06:06:21;;;;;;;19.88;12.90;;;-0.40;99.90;;;;;;4921975;28;20149;-77
2023/11/28 06:08:48;;;;;;;22.38;14.10;;;-0.40;99.90;;;;;;4924811;28;20047;-78
2023/11/28 06:11:15;;;;;;;18.17;11.82;;;-0.40;99.90;;;;;;4933667;28;20101;-78
2023/11/28 06:13:42;;;;;;;20.20;14.05;;;-0.40;99.90;;;;;;4929720;28;20291;-78
2023/11/28 06:16:09;;;;;;;19.60;13.52;;;-0.40;99.90;;;;;;4932445;28;20141;-78
2023/11/28 06:18:37;;;;;;;22.00;14.13;;;-0.40;99.90;;;;;;4931624;28;20049;-78
2023/11/28 06:21:09;;;;;;;24.67;14.65;;;-0.40;99.90;;;;;;4928123;28;20039;-78
2023/11/28 06:23:36;;;;;;;25.67;14.57;;;-0.30;99.90;;;;;;4926274;28;20047;-78
2023/11/28 06:26:03;;;;;;;29.15;18.55;;;-0.40;99.90;;;;;;4922026;28;20063;-78
2023/11/28 06:28:30;;;;;;;28.75;17.55;;;-0.40;99.90;;;;;;4930996;28;20058;-77
2023/11/28 06:30:57;;;;;;;30.65;17.85;;;-0.40;99.90;;;;;;4952108;28;20146;-78
2023/11/28 06:33:23;;;;;;;30.63;18.65;;;-0.40;99.90;;;;;;4924707;28;20039;-78
2023/11/28 06:35:50;;;;;;;30.98;18.17;;;-0.40;99.90;;;;;;4928689;28;20121;-78
2023/11/28 06:38:17;;;;;;;34.30;19.05;;;-0.40;99.90;;;;;;4937639;28;20042;-77
2023/11/28 06:40:44;;;;;;;33.10;20.20;;;-0.40;99.90;;;;;;4939255;28;20158;-77
2023/11/28 06:43:11;;;;;;;28.17;18.50;;;-0.40;99.90;;;;;;4931127;28;20645;-77
2023/11/28 06:45:38;;;;;;;31.30;19.13;;;-0.50;99.90;;;;;;4927670;28;20104;-77
2023/11/28 06:48:05;;;;;;;31.08;17.77;;;-0.50;99.90;;;;;;4931681;28;20047;-78
2023/11/28 06:50:32;;;;;;;29.38;18.20;;;-0.40;99.90;;;;;;4931150;28;20093;-77
2023/11/28 06:52:59;;;;;;;29.85;17.55;;;-0.50;99.90;;;;;;4925528;28;20231;-77
2023/11/28 06:55:26;;;;;;;31.60;18.77;;;-0.50;99.90;;;;;;4946052;28;20058;-76
2023/11/28 06:57:52;;;;;;;30.73;19.33;;;-0.50;99.90;;;;;;4940985;28;20043;-78
2023/11/28 07:00:19;;;;;;;30.92;18.25;;;-0.60;99.90;;;;;;4923777;28;20766;-81
2023/11/28 07:02:46;;;;;;;34.90;21.13;;;-0.60;99.90;;;;;;4910582;28;20453;-77
2023/11/28 07:05:13;;;;;;;28.88;18.17;;;-0.60;99.90;;;;;;4928704;28;20038;-77
2023/11/28 07:07:41;;;;;;;29.75;19.45;;;-0.60;99.90;;;;;;4913208;28;20129;-77
2023/11/28 07:10:08;;;;;;;25.08;18.25;;;-0.60;99.90;;;;;;4941105;28;20043;-77
2023/11/28 07:12:35;;;;;;;32.40;18.75;;;-0.60;99.90;;;;;;4933771;28;20062;-77
2023/11/28 07:15:04;;;;;;;29.13;19.27;;;-0.60;99.90;;;;;;4912798;28;20067;-76
2023/11/28 07:17:32;;;;;;;31.15;18.95;;;-0.70;99.90;;;;;;4910123;28;20053;-78
2023/11/28 07:19:59;;;;;;;31.58;19.90;;;-0.70;99.90;;;;;;4929384;28;20043;-78
2023/11/28 07:22:27;;;;;;;32.78;19.73;;;-0.80;99.90;;;;;;4937551;28;20320;-77
2023/11/28 07:24:54;;;;;;;30.35;19.20;;;-0.70;99.90;;;;;;4927849;28;20051;-76
2023/11/28 07:27:24;;;;;;;31.38;20.30;;;-0.70;99.90;;;;;;4928573;28;20039;-77
2023/11/28 07:29:50;;;;;;;24.80;19.00;;;-0.80;99.90;;;;;;4931415;28;20127;-77
2023/11/28 07:32:19;;;;;;;25.77;18.70;;;-0.70;99.90;;;;;;4929850;28;20133;-77
2023/11/28 07:34:46;;;;;;;28.75;20.23;;;-0.70;99.90;;;;;;4903923;28;20359;-77
2023/11/28 07:37:12;;;;;;;32.90;20.73;;;-0.80;99.90;;;;;;4914756;28;20111;-76
2023/11/28 07:39:39;;;;;;;33.22;20.67;;;-0.80;99.90;;;;;;4925107;28;20058;-77
2023/11/28 07:42:06;;;;;;;25.45;18.42;;;-0.80;99.90;;;;;;4908271;28;20567;-76
2023/11/28 07:44:33;;;;;;;32.53;20.92;;;-0.80;99.90;;;;;;4916901;28;20062;-77
2023/11/28 07:46:59;;;;;;;26.48;17.90;;;-0.80;99.90;;;;;;4926975;28;20047;-77
2023/11/28 07:49:27;;;;;;;29.27;21.23;;;-0.80;99.90;;;;;;4944193;28;20133;-76
2023/11/28 07:51:54;;;;;;;26.58;18.65;;;-0.90;99.90;;;;;;4933793;28;20054;-76
2023/11/28 07:54:21;;;;;;;27.10;18.25;;;-0.90;99.90;;;;;;4942435;28;20074;-78
2023/11/28 07:56:48;;;;;;;28.15;20.05;;;-0.90;99.90;;;;;;4935843;28;20500;-77
2023/11/28 07:59:15;;;;;;;27.52;19.25;;;-0.90;99.90;;;;;;4921708;28;20062;-77
2023/11/28 08:01:42;;;;;;;25.33;19.65;;;-0.90;99.90;;;;;;4932784;28;20049;-77
2023/11/28 08:04:09;;;;;;;33.67;20.20;;;-0.90;99.90;;;;;;4935150;28;20055;-77
2023/11/28 08:06:36;;;;;;;23.88;18.67;;;-0.90;99.90;;;;;;4957445;28;20484;-78
2023/11/28 08:09:04;;;;;;;28.15;20.00;;;-1.00;99.90;;;;;;4935314;28;20060;-77
2023/11/28 08:11:31;;;;;;;26.15;19.92;;;-1.00;99.90;;;;;;4938436;28;20049;-77
2023/11/28 08:13:58;;;;;;;26.35;19.02;;;-1.00;99.90;;;;;;4924614;28;20459;-75
2023/11/28 08:16:25;;;;;;;24.30;19.63;;;-1.00;99.90;;;;;;4938286;28;20074;-76
2023/11/28 08:18:52;;;;;;;22.35;17.77;;;-1.10;99.90;;;;;;4942629;28;20465;-78
2023/11/28 08:21:19;;;;;;;25.75;18.92;;;-1.10;99.90;;;;;;4950183;28;20066;-78
2023/11/28 08:23:46;;;;;;;23.13;18.95;;;-1.10;99.90;;;;;;4936779;28;20039;-77
2023/11/28 08:26:14;;;;;;;24.90;18.42;;;-1.10;99.90;;;;;;4915582;28;20598;-77
2023/11/28 08:28:41;;;;;;;24.83;19.27;;;-1.20;99.90;;;;;;4940789;28;20118;-78
2023/11/28 08:31:09;;;;;;;19.92;17.88;;;-1.20;99.90;;;;;;4918163;28;20047;-77
2023/11/28 08:33:35;;;;;;;24.30;19.48;;;-1.20;99.90;;;;;;4917700;28;20102;-77
2023/11/28 08:36:03;;;;;;;21.13;18.00;;;-1.20;99.90;;;;;;4919601;28;20248;-77
2023/11/28 08:38:31;;;;;;;22.67;20.17;;;-1.30;99.90;;;;;;4947353;28;20055;-76
2023/11/28 08:40:58;;;;;;;28.25;20.02;;;-1.30;99.90;;;;;;4924920;28;20417;-77
2023/11/28 08:43:25;;;;;;;22.02;18.42;;;-1.30;99.90;;;;;;4916316;29;20295;-76
2023/11/28 08:45:52;;;;;;;20.25;18.13;;;-1.30;99.90;;;;;;4933595;28;20524;-76
2023/11/28 08:48:18;;;;;;;24.02;21.85;;;-1.30;99.90;;;;;;4913944;28;20047;-75
2023/11/28 08:50:45;;;;;;;18.23;16.42;;;-1.30;99.90;;;;;;4952549;28;20094;-75
2023/11/28 08:53:12;;;;;;;19.20;17.42;;;-1.20;99.90;;;;;;4934001;28;20054;-78
2023/11/28 08:55:39;;;;;;;19.55;17.65;;;-1.20;99.90;;;;;;4931770;28;20231;-77
2023/11/28 08:58:06;;;;;;;23.98;21.70;;;-1.30;99.90;;;;;;4945050;23;20727;-77
2023/11/28 09:00:33;;;;;;;19.02;17.02;;;-1.20;99.90;;;;;;4958991;28;20058;-77
2023/11/28 09:03:03;;;;;;;20.67;17.25;;;-1.30;99.90;;;;;;4959728;28;20030;-77
2023/11/28 09:05:30;;;;;;;22.42;20.10;;;-1.20;99.90;;;;;;4948199;28;20082;-78
2023/11/28 09:08:00;;;;;;;21.00;18.85;;;-1.10;99.90;;;;;;4957456;28;20142;-77
2023/11/28 09:10:26;;;;;;;19.58;17.77;;;-1.10;99.90;;;;;;4982673;28;20109;-78
2023/11/28 09:12:53;;;;;;;19.08;17.25;;;-1.10;99.90;;;;;;4948816;28;20054;-79
2023/11/28 09:15:20;;;;;;;20.83;18.60;;;-1.10;99.90;;;;;;4958134;28;20359;-78
2023/11/28 09:17:47;;;;;;;19.95;18.15;;;-1.10;99.90;;;;;;4965857;28;20112;-78
2023/11/28 09:20:17;;;;;;;24.45;22.23;;;-1.10;99.90;;;;;;4944124;28;20117;-79
2023/11/28 09:22:47;;;;;;;20.23;18.27;;;-1.10;99.90;;;;;;4963280;28;20165;-79
2023/11/28 09:25:15;;;;;;;21.50;19.48;;;-1.00;99.90;;;;;;4961512;28;20674;-78
2023/11/28 09:27:42;;;;;;;21.33;18.63;;;-1.10;99.90;;;;;;4959189;28;20085;-78
2023/11/28 09:30:09;;;;;;;21.17;18.63;;;-1.10;99.90;;;;;;4945776;28;20050;-78
2023/11/28 09:32:36;;;;;;;21.15;19.25;;;-1.10;99.90;;;;;;4944417;28;20102;-78
2023/11/28 09:35:03;;;;;;;19.70;17.95;;;-1.00;99.90;;;;;;4956182;28;20058;-78
2023/11/28 09:37:32;;;;;;;19.33;17.70;;;-0.90;99.90;;;;;;4965404;28;20085;-79
2023/11/28 09:39:58;;;;;;;21.60;19.48;;;-1.00;99.90;;;;;;4963575;28;20179;-78
2023/11/28 09:42:31;;;;;;;21.30;19.38;;;-1.00;99.90;;;;;;4963383;28;20054;-78
2023/11/28 09:45:06;;;;;;;20.67;18.73;;;-0.90;99.90;;;;;;4956894;28;20039;-78
2023/11/28 09:47:36;;;;;;;;;;;-0.80;99.90;;;;;;4962668;28;20053;-78
2023/11/28 09:50:12;;;;;;;19.98;18.25;;;-0.70;99.90;;;;;;4957876;28;19933;-78
2023/11/28 09:52:44;;;;;;;30.30;27.38;;;-0.60;99.90;;;;;;4962518;28;20286;-78
2023/11/28 09:55:14;;;;;;;21.77;19.92;;;-0.60;99.90;;;;;;4942937;28;20769;-79
2023/11/28 09:57:47;;;;;;;21.40;19.58;;;-0.60;99.90;;;;;;4964347;28;20046;-78
2023/11/28 10:00:19;;;;;;;21.13;19.23;;;-0.50;99.90;;;;;;4939671;28;20047;-79
2023/11/28 10:02:56;;;;;;;35.85;30.45;;;-0.50;99.90;;;;;;4957993;28;20043;-78
2023/11/28 10:05:23;;;;;;;132.48;71.95;;;-0.60;99.90;;;;;;4956756;28;20043;-78
2023/11/28 10:07:55;;;;;;;31.30;25.25;;;-0.70;99.90;;;;;;4938923;28;20100;-77
2023/11/28 10:10:23;;;;;;;30.50;25.85;;;-0.60;99.90;;;;;;4947179;28;20084;-78
2023/11/28 10:12:54;;;;;;;23.70;21.38;;;-0.60;99.90;;;;;;4944429;28;20054;-77
2023/11/28 10:15:27;;;;;;;23.88;21.50;;;-0.50;99.90;;;;;;4958587;28;20042;-78
2023/11/28 10:17:55;;;;;;;29.60;26.02;;;-0.40;99.90;;;;;;4955533;28;20142;-78
2023/11/28 10:20:27;;;;;;;23.70;21.70;;;-0.40;99.90;;;;;;4966262;28;20117;-79
2023/11/28 10:22:54;;;;;;;24.73;22.55;;;-0.40;99.90;;;;;;4960519;28;20042;-78
2023/11/28 10:25:28;;;;;;;23.60;21.45;;;-0.40;99.90;;;;;;4960657;28;20527;-79
2023/11/28 10:28:01;;;;;;;23.33;21.42;;;-0.40;99.90;;;;;;4937728;28;20050;-79
2023/11/28 10:30:29;;;;;;;24.13;21.95;;;-0.30;99.90;;;;;;4976814;28;20125;-78
2023/11/28 10:32:59;;;;;;;23.98;21.85;;;-0.40;99.90;;;;;;4959392;28;20096;-78
2023/11/28 10:35:39;;;;;;;22.25;20.38;;;-0.50;99.90;;;;;;4965449;28;20539;-79
2023/11/28 10:38:06;;;;;;;22.30;20.60;;;-0.60;99.90;;;;;;4963499;28;20054;-78
2023/11/28 10:40:33;;;;;;;21.95;20.25;;;-0.50;99.90;;;;;;4961422;28;20034;-78
2023/11/28 10:43:00;;;;;;;21.15;19.55;;;-0.50;99.90;;;;;;4961823;28;20133;-78
2023/11/28 10:45:34;;;;;;;25.83;23.92;;;-0.50;99.90;;;;;;4962245;28;20083;-77
2023/11/28 10:48:04;;;;;;;21.27;19.50;;;-0.60;99.90;;;;;;4942017;28;20047;-77
2023/11/28 10:50:35;;;;;;;21.58;19.80;;;-0.60;99.90;;;;;;4959119;28;20050;-78
2023/11/28 10:53:06;;;;;;;22.50;20.70;;;-0.40;99.90;;;;;;4961459;28;20053;-77
2023/11/28 10:55:39;;;;;;;21.85;20.27;;;-0.40;99.90;;;;;;4963339;28;20061;-78
2023/11/28 10:58:12;;;;;;;27.17;24.25;;;-0.30;99.90;;;;;;4940999;28;20068;-77
2023/11/28 11:00:55;;;;;;;21.30;19.50;;;-0.40;99.90;;;;;;4956017;28;20104;-77
2023/11/28 11:03:25;;;;;;;19.45;18.05;;;-0.40;99.90;;;;;;4978399;28;20038;-77
2023/11/28 11:05:52;;;;;;;21.20;19.70;;;-0.30;99.90;;;;;;4976410;28;20050;-77
2023/11/28 11:08:21;;;;;;;20.55;19.05;;;-0.40;99.90;;;;;;4950417;28;20742;-77
2023/11/28 11:10:50;;;;;;;21.73;20.08;;;-0.20;99.90;;;;;;4962760;28;20046;-78
2023/11/28 11:13:46;;;;;;;21.27;19.50;;;-0.20;99.90;;;;;;4959075;28;20050;-77
2023/11/28 11:16:26;;;;;;;20.42;19.08;;;-0.20;99.90;;;;;;4953424;28;20376;-78
2023/11/28 11:18:56;;;;;;;20.15;18.85;;;-0.30;99.90;;;;;;4951628;28;20047;-78
2023/11/28 11:21:56;;;;;;;21.50;20.02;;;-0.20;99.90;;;;;;4958987;28;20109;-78
2023/11/28 11:24:25;;;;;;;21.00;19.60;;;-0.20;99.90;;;;;;4956449;28;20419;-78
2023/11/28 11:26:51;;;;;;;22.20;20.70;;;-0.10;99.90;;;;;;4949854;28;20033;-78
2023/11/28 11:29:25;;;;;;;22.98;21.48;;;-0.20;99.90;;;;;;4939739;28;20105;-78
2023/11/28 11:31:55;;;;;;;22.13;20.42;;;0.00;99.90;;;;;;4960677;28;20517;-77
2023/11/28 11:34:34;;;;;;;20.63;19.13;;;0.20;99.90;;;;;;4971127;28;20049;-76
2023/11/28 11:37:11;;;;;;;23.88;22.05;;;0.40;99.90;;;;;;4953142;28;20054;-79
2023/11/28 11:39:42;;;;;;;24.08;22.58;;;0.40;99.90;;;;;;4953433;28;20053;-79
2023/11/28 11:42:21;;;;;;;25.80;24.02;;;0.60;99.90;;;;;;4959235;28;20845;-78
2023/11/28 11:44:55;;;;;;;29.02;27.13;;;0.60;99.90;;;;;;4950006;28;20755;-78
2023/11/28 11:47:24;;;;;;;27.13;25.23;;;0.50;99.90;;;;;;4959414;28;20068;-78
2023/11/28 11:49:53;;;;;;;30.95;28.65;;;0.50;99.90;;;;;;4972668;28;20666;-78
2023/11/28 11:52:27;;;;;;;26.85;25.05;;;0.60;99.90;;;;;;4963469;28;20057;-78
2023/11/28 11:55:09;;;;;;;27.00;25.30;;;0.60;99.90;;;;;;4956433;28;20507;-78
2023/11/28 11:57:39;;;;;;;27.40;25.55;;;0.40;99.90;;;;;;4954008;28;20101;-77
2023/11/28 12:00:07;;;;;;;35.55;33.25;;;0.30;99.90;;;;;;4937958;28;20050;-78
2023/11/28 12:02:44;;;;;;;26.35;24.42;;;0.50;99.90;;;;;;4962714;28;20047;-78
2023/11/28 12:05:13;;;;;;;27.23;25.42;;;0.60;99.90;;;;;;4941993;28;20049;-78
2023/11/28 12:07:42;;;;;;;26.23;24.33;;;0.60;99.90;;;;;;4966618;28;20049;-77
2023/11/28 12:10:11;;;;;;;27.63;25.52;;;0.40;99.90;;;;;;4938184;28;20062;-77
2023/11/28 12:12:39;;;;;;;26.90;24.90;;;0.40;99.90;;;;;;4951188;28;20403;-78
2023/11/28 12:15:09;;;;;;;25.88;24.08;;;0.40;99.90;;;;;;4954271;28;20129;-78
2023/11/28 12:17:38;;;;;;;25.83;24.13;;;0.40;99.90;;;;;;4946903;28;20042;-77
2023/11/28 12:20:08;;;;;;;25.75;23.80;;;0.30;99.90;;;;;;4940144;28;20051;-77
2023/11/28 12:22:35;;;;;;;24.92;23.15;;;0.30;99.90;;;;;;4979787;28;20039;-80
2023/11/28 12:25:23;;;;;;;25.02;23.33;;;0.20;99.90;;;;;;4975206;28;20700;-79
2023/11/28 12:27:51;;;;;;;24.77;22.98;;;0.30;99.90;;;;;;4963943;28;20149;-78
2023/11/28 12:30:18;;;;;;;25.70;23.30;;;0.40;99.90;;;;;;4940060;28;21328;-79
2023/11/28 12:32:48;;;;;;;26.52;24.60;;;0.50;99.90;;;;;;4960255;28;20050;-78
2023/11/28 12:35:17;;;;;;;25.20;23.23;;;0.40;99.90;;;;;;4943432;28;20054;-79
2023/11/28 12:37:50;;;;;;;24.38;22.77;;;0.30;99.90;;;;;;4959917;28;20046;-79
2023/11/28 12:40:18;;;;;;;27.67;25.33;;;0.30;99.90;;;;;;4957237;28;20050;-78
2023/11/28 12:42:45;;;;;;;34.05;31.73;;;0.30;99.90;;;;;;4978818;28;20484;-78
2023/11/28 12:45:13;;;;;;;27.45;25.25;;;0.20;99.90;;;;;;4946832;28;20121;-79
2023/11/28 12:47:40;;;;;;;27.20;24.98;;;0.20;99.90;;;;;;4965320;28;20100;-79
2023/11/28 12:50:08;;;;;;;26.55;24.40;;;0.10;99.90;;;;;;4955282;28;20081;-79
2023/11/28 12:52:41;;;;;;;25.17;23.17;;;0.00;99.90;;;;;;4956184;28;20035;-79
2023/11/28 12:55:09;;;;;;;24.60;22.80;;;-0.10;99.90;;;;;;4947165;28;20054;-80
2023/11/28 12:57:36;;;;;;;25.83;23.83;;;-0.10;99.90;;;;;;4961800;28;20074;-79
2023/11/28 13:00:12;;;;;;;23.90;22.20;;;-0.20;99.90;;;;;;4960272;28;20073;-80
2023/11/28 13:02:38;;;;;;;23.85;22.02;;;-0.20;99.90;;;;;;4973597;28;20368;-80
2023/11/28 13:05:07;;;;;;;23.05;21.42;;;-0.20;99.90;;;;;;4955129;28;20053;-80
2023/11/28 13:07:36;;;;;;;24.92;22.88;;;-0.20;99.90;;;;;;4956723;28;20106;-80
2023/11/28 13:10:16;;;;;;;24.75;22.88;;;-0.20;99.90;;;;;;4958881;28;20106;-81
2023/11/28 13:12:44;;;;;;;23.25;21.60;;;-0.30;99.90;;;;;;4971707;28;20735;-80
2023/11/28 13:15:14;;;;;;;24.48;22.70;;;-0.30;99.90;;;;;;4942793;28;20077;-80
2023/11/28 13:17:42;;;;;;;23.33;21.40;;;-0.40;99.90;;;;;;4977483;28;20125;-79
2023/11/28 13:20:11;;;;;;;24.83;22.67;;;-0.50;99.90;;;;;;4946425;28;20050;-80
2023/11/28 13:22:40;;;;;;;23.40;21.65;;;-0.40;99.90;;;;;;4942540;28;20046;-79
2023/11/28 13:25:07;;;;;;;30.90;28.90;;;-0.40;99.90;;;;;;4951366;28;20185;-79
2023/11/28 13:27:36;;;;;;;23.60;21.60;;;-0.50;99.90;;;;;;4952739;28;20054;-79
2023/11/28 13:30:06;;;;;;;24.15;22.45;;;-0.40;99.90;;;;;;4941580;28;20074;-79
2023/11/28 13:32:36;;;;;;;23.55;21.85;;;-0.40;99.90;;;;;;4949493;28;20051;-77
2023/11/28 13:35:09;;;;;;;23.45;21.65;;;-0.30;99.90;;;;;;4950334;28;20034;-78
2023/11/28 13:37:36;;;;;;;21.60;19.83;;;-0.40;99.90;;;;;;4944350;28;20070;-79
2023/11/28 13:40:03;;;;;;;22.17;20.48;;;-0.30;99.90;;;;;;4954686;28;20046;-78
2023/11/28 13:42:35;;;;;;;24.88;22.75;;;-0.40;99.90;;;;;;4946247;28;20162;-77
2023/11/28 13:45:03;;;;;;;24.92;22.67;;;-0.40;99.90;;;;;;4946164;28;20046;-76